N469ER KPHX-KTUS
Flight info
| Callsign | N469ER |
|---|---|
| Flight time | N/A |
| Altitude | 3000 |
| Route | NEW TO VATSIM PRACTICE FLIGHT |
| Aircraft | C172/L-VGD/A |
Departure
| Time | 2026-05-05 18:13 |
|---|---|
| Airport | Phoenix Sky Harbor International Airport (KPHX) |
Arrival
| Time | N/A |
|---|---|
| Airport | Tucson International Airport (KTUS) |
| Time | Latitude | Longitude | Altitude | Speed | Heading |
|---|---|---|---|---|---|
| 2026-05-05 17:44 | 33.43391 | -112.01197 | 1125 ft | 0 kts | 11° |
| 2026-05-05 18:02 | 33.43395 | -112.01198 | 1125 ft | 4 kts | 350° |
| 2026-05-05 18:03 | 33.43420 | -112.01238 | 1125 ft | 6 kts | 303° |
| 2026-05-05 18:03 | 33.43425 | -112.01275 | 1125 ft | 4 kts | 266° |
| 2026-05-05 18:03 | 33.43419 | -112.01291 | 1117 ft | 0 kts | 211° |
| 2026-05-05 18:07 | 33.43417 | -112.01292 | 1120 ft | 3 kts | 211° |
| 2026-05-05 18:07 | 33.43337 | -112.01305 | 1125 ft | 14 kts | 147° |
| 2026-05-05 18:07 | 33.43272 | -112.01229 | 1125 ft | 12 kts | 140° |
| 2026-05-05 18:08 | 33.43227 | -112.01154 | 1122 ft | 10 kts | 103° |
| 2026-05-05 18:08 | 33.43221 | -112.01075 | 1125 ft | 9 kts | 89° |
| 2026-05-05 18:08 | 33.43220 | -112.00989 | 1125 ft | 15 kts | 91° |
| 2026-05-05 18:08 | 33.43217 | -112.00835 | 1126 ft | 20 kts | 90° |
| 2026-05-05 18:09 | 33.43216 | -112.00649 | 1127 ft | 27 kts | 90° |
| 2026-05-05 18:09 | 33.43214 | -112.00381 | 1127 ft | 38 kts | 90° |
| 2026-05-05 18:09 | 33.43214 | -112.00069 | 1127 ft | 37 kts | 90° |
| 2026-05-05 18:09 | 33.43214 | -111.99778 | 1127 ft | 33 kts | 89° |
| 2026-05-05 18:10 | 33.43214 | -111.99522 | 1127 ft | 29 kts | 89° |
| 2026-05-05 18:10 | 33.43234 | -111.99310 | 1127 ft | 24 kts | 117° |
| 2026-05-05 18:10 | 33.43269 | -111.99290 | 1126 ft | 13 kts | 251° |
| 2026-05-05 18:10 | 33.43211 | -111.99313 | 1127 ft | 6 kts | 188° |
| 2026-05-05 18:11 | 33.43187 | -111.99322 | 1128 ft | 1 kts | 203° |
| 2026-05-05 18:11 | 33.43186 | -111.99322 | 1128 ft | 0 kts | 205° |
| 2026-05-05 18:11 | 33.43145 | -111.99340 | 1130 ft | 8 kts | 191° |
| 2026-05-05 18:12 | 33.43114 | -111.99413 | 1130 ft | 24 kts | 266° |
| 2026-05-05 18:12 | 33.43108 | -111.99840 | 1171 ft | 69 kts | 270° |
| 2026-05-05 18:12 | 33.43121 | -112.00458 | 1404 ft | 77 kts | 272° |
| 2026-05-05 18:12 | 33.43136 | -112.01122 | 1597 ft | 84 kts | 270° |
| 2026-05-05 18:13 | 33.43166 | -112.01781 | 1879 ft | 75 kts | 270° |
| 2026-05-05 18:13 | 33.43202 | -112.02451 | 1938 ft | 91 kts | 268° |
| 2026-05-05 18:13 | 33.43268 | -112.03238 | 2052 ft | 97 kts | 270° |
| 2026-05-05 18:13 | 33.43347 | -112.04049 | 2142 ft | 105 kts | 275° |
| 2026-05-05 18:14 | 33.43623 | -112.04700 | 2460 ft | 93 kts | 2° |
| 2026-05-05 18:14 | 33.44353 | -112.04413 | 2459 ft | 121 kts | 13° |
| 2026-05-05 18:14 | 33.45097 | -112.04605 | 2606 ft | 109 kts | 307° |
| 2026-05-05 18:14 | 33.45015 | -112.05334 | 2767 ft | 106 kts | 212° |
| 2026-05-05 18:15 | 33.44169 | -112.05369 | 2455 ft | 131 kts | 175° |
| 2026-05-05 18:15 | 33.43327 | -112.05132 | 2518 ft | 121 kts | 167° |
| 2026-05-05 18:15 | 33.42529 | -112.04798 | 2531 ft | 119 kts | 163° |
| 2026-05-05 18:15 | 33.41795 | -112.04352 | 2533 ft | 121 kts | 153° |
| 2026-05-05 18:16 | 33.41105 | -112.03824 | 2727 ft | 111 kts | 153° |
| 2026-05-05 18:16 | 33.40485 | -112.03277 | 2832 ft | 113 kts | 148° |
| 2026-05-05 18:16 | 33.39844 | -112.02694 | 2872 ft | 116 kts | 151° |
| 2026-05-05 18:16 | 33.39174 | -112.02143 | 2902 ft | 120 kts | 149° |
| 2026-05-05 18:17 | 33.38518 | -112.01582 | 3086 ft | 111 kts | 150° |
| 2026-05-05 18:17 | 33.37903 | -112.01026 | 3217 ft | 112 kts | 150° |
| 2026-05-05 18:17 | 33.37279 | -112.00457 | 3297 ft | 115 kts | 148° |
| 2026-05-05 18:17 | 33.36629 | -111.99891 | 3362 ft | 116 kts | 149° |
| 2026-05-05 18:18 | 33.35958 | -111.99338 | 3430 ft | 118 kts | 153° |
| 2026-05-05 18:18 | 33.35289 | -111.98771 | 3528 ft | 117 kts | 152° |
| 2026-05-05 18:18 | 33.34605 | -111.98245 | 3597 ft | 116 kts | 158° |
| 2026-05-05 18:18 | 33.33898 | -111.97759 | 3677 ft | 117 kts | 158° |
| 2026-05-05 18:19 | 33.33178 | -111.97315 | 3826 ft | 118 kts | 153° |
| 2026-05-05 18:19 | 33.32952 | -111.96422 | 4040 ft | 129 kts | 53° |
| 2026-05-05 18:19 | 33.33827 | -111.96204 | 3983 ft | 142 kts | 354° |
| 2026-05-05 18:19 | 33.34734 | -111.96550 | 3989 ft | 135 kts | 328° |
| 2026-05-05 18:20 | 33.35546 | -111.97042 | 4099 ft | 126 kts | 327° |